sensor_id;sensor_type;location;lat;lon;timestamp;pressure;altitude;pressure_sealevel;temperature;humidity
58769;BME280;44536;47.474;19.056;2023-04-03T00:03:01;100395.50;;;6.28;71.57
58769;BME280;44536;47.474;19.056;2023-04-03T00:06:04;100389.78;;;6.22;73.70
58769;BME280;44536;47.474;19.056;2023-04-03T00:09:10;100404.44;;;6.26;71.50
58769;BME280;44536;47.474;19.056;2023-04-03T00:12:13;100394.28;;;6.20;72.35
58769;BME280;44536;47.474;19.056;2023-04-03T00:15:16;100392.56;;;6.19;72.33
58769;BME280;44536;47.474;19.056;2023-04-03T00:18:21;100394.19;;;6.21;72.43
58769;BME280;44536;47.474;19.056;2023-04-03T00:21:24;100389.53;;;6.11;74.20
58769;BME280;44536;47.474;19.056;2023-04-03T00:24:26;100393.00;;;6.11;72.26
58769;BME280;44536;47.474;19.056;2023-04-03T00:27:29;100396.06;;;6.04;74.45
58769;BME280;44536;47.474;19.056;2023-04-03T00:30:32;100400.22;;;6.08;72.36
58769;BME280;44536;47.474;19.056;2023-04-03T00:33:34;100390.97;;;6.16;71.65
58769;BME280;44536;47.474;19.056;2023-04-03T00:36:37;100394.97;;;6.08;72.05
58769;BME280;44536;47.474;19.056;2023-04-03T00:39:39;100395.91;;;6.07;72.70
58769;BME280;44536;47.474;19.056;2023-04-03T00:42:43;100400.16;;;6.09;72.08
58769;BME280;44536;47.474;19.056;2023-04-03T00:45:49;100405.75;;;6.03;72.04
58769;BME280;44536;47.474;19.056;2023-04-03T00:48:52;100400.06;;;5.95;72.08
58769;BME280;44536;47.474;19.056;2023-04-03T00:51:55;100395.91;;;5.91;72.92
58769;BME280;44536;47.474;19.056;2023-04-03T00:55:03;100400.47;;;5.87;71.66
58769;BME280;44536;47.474;19.056;2023-04-03T00:58:06;100400.88;;;5.80;73.47
58769;BME280;44536;47.474;19.056;2023-04-03T01:01:10;100399.41;;;5.91;73.71
58769;BME280;44536;47.474;19.056;2023-04-03T01:04:33;100412.22;;;5.97;72.74
58769;BME280;44536;47.474;19.056;2023-04-03T01:07:37;100408.66;;;5.98;72.07
58769;BME280;44536;47.474;19.056;2023-04-03T01:10:40;100404.16;;;6.01;71.19
58769;BME280;44536;47.474;19.056;2023-04-03T01:13:43;100411.19;;;6.00;70.92
58769;BME280;44536;47.474;19.056;2023-04-03T01:16:54;100406.19;;;5.95;71.23
58769;BME280;44536;47.474;19.056;2023-04-03T01:23:46;100411.28;;;5.98;70.66
58769;BME280;44536;47.474;19.056;2023-04-03T01:26:50;100407.44;;;5.88;70.68
58769;BME280;44536;47.474;19.056;2023-04-03T01:29:53;100413.41;;;5.92;71.06
58769;BME280;44536;47.474;19.056;2023-04-03T01:32:56;100408.53;;;5.84;70.56
58769;BME280;44536;47.474;19.056;2023-04-03T01:35:59;100414.94;;;5.96;70.11
58769;BME280;44536;47.474;19.056;2023-04-03T01:39:02;100411.72;;;5.91;69.97
58769;BME280;44536;47.474;19.056;2023-04-03T01:42:04;100414.91;;;5.80;70.86
58769;BME280;44536;47.474;19.056;2023-04-03T01:45:08;100411.94;;;5.86;69.29
58769;BME280;44536;47.474;19.056;2023-04-03T01:48:10;100417.53;;;5.80;70.22
58769;BME280;44536;47.474;19.056;2023-04-03T01:51:12;100428.13;;;5.79;69.75
58769;BME280;44536;47.474;19.056;2023-04-03T01:54:15;100429.84;;;5.80;69.43
58769;BME280;44536;47.474;19.056;2023-04-03T01:57:18;100432.06;;;5.72;69.34
58769;BME280;44536;47.474;19.056;2023-04-03T02:00:20;100429.84;;;5.64;72.04
58769;BME280;44536;47.474;19.056;2023-04-03T02:03:24;100429.09;;;5.62;70.82
58769;BME280;44536;47.474;19.056;2023-04-03T02:06:27;100432.47;;;5.64;70.47
58769;BME280;44536;47.474;19.056;2023-04-03T02:09:29;100431.47;;;5.67;70.23
58769;BME280;44536;47.474;19.056;2023-04-03T02:12:32;100431.72;;;5.62;69.94
58769;BME280;44536;47.474;19.056;2023-04-03T02:15:38;100434.19;;;5.65;71.27
58769;BME280;44536;47.474;19.056;2023-04-03T02:18:40;100429.94;;;5.62;69.36
58769;BME280;44536;47.474;19.056;2023-04-03T02:21:42;100435.00;;;5.50;69.28
58769;BME280;44536;47.474;19.056;2023-04-03T02:24:45;100432.47;;;5.48;70.02
58769;BME280;44536;47.474;19.056;2023-04-03T02:27:48;100438.19;;;5.39;69.90
58769;BME280;44536;47.474;19.056;2023-04-03T02:30:50;100437.28;;;5.40;70.40
58769;BME280;44536;47.474;19.056;2023-04-03T02:33:53;100434.38;;;5.29;71.16
58769;BME280;44536;47.474;19.056;2023-04-03T02:36:56;100436.66;;;5.35;71.04
58769;BME280;44536;47.474;19.056;2023-04-03T02:39:59;100436.59;;;5.37;71.87
58769;BME280;44536;47.474;19.056;2023-04-03T02:43:02;100442.69;;;5.37;70.31
58769;BME280;44536;47.474;19.056;2023-04-03T02:46:05;100429.72;;;5.34;69.57
58769;BME280;44536;47.474;19.056;2023-04-03T02:49:08;100430.72;;;5.31;69.59
58769;BME280;44536;47.474;19.056;2023-04-03T02:52:11;100436.75;;;5.33;70.06
58769;BME280;44536;47.474;19.056;2023-04-03T02:55:14;100433.34;;;5.31;69.96
58769;BME280;44536;47.474;19.056;2023-04-03T02:58:18;100432.81;;;5.25;69.70
58769;BME280;44536;47.474;19.056;2023-04-03T03:01:21;100432.81;;;5.25;70.00
58769;BME280;44536;47.474;19.056;2023-04-03T03:04:23;100436.13;;;5.28;69.75
58769;BME280;44536;47.474;19.056;2023-04-03T03:07:26;100436.38;;;5.24;69.94
58769;BME280;44536;47.474;19.056;2023-04-03T03:10:28;100438.09;;;5.25;70.62
58769;BME280;44536;47.474;19.056;2023-04-03T03:13:31;100436.75;;;5.18;70.38
58769;BME280;44536;47.474;19.056;2023-04-03T03:16:33;100457.22;;;5.11;70.22
58769;BME280;44536;47.474;19.056;2023-04-03T03:19:35;100452.97;;;5.09;70.67
58769;BME280;44536;47.474;19.056;2023-04-03T03:22:38;100451.91;;;4.95;70.14
58769;BME280;44536;47.474;19.056;2023-04-03T03:25:41;100453.84;;;4.92;71.37
58769;BME280;44536;47.474;19.056;2023-04-03T03:28:43;100449.12;;;4.98;70.78
58769;BME280;44536;47.474;19.056;2023-04-03T03:31:46;100455.38;;;4.96;71.21
58769;BME280;44536;47.474;19.056;2023-04-03T03:34:48;100449.34;;;4.94;71.13
58769;BME280;44536;47.474;19.056;2023-04-03T03:37:51;100457.31;;;4.92;71.00
58769;BME280;44536;47.474;19.056;2023-04-03T03:40:53;100452.38;;;4.86;71.24
58769;BME280;44536;47.474;19.056;2023-04-03T03:43:57;100454.69;;;4.92;71.30
58769;BME280;44536;47.474;19.056;2023-04-03T03:47:01;100445.88;;;4.93;71.33
58769;BME280;44536;47.474;19.056;2023-04-03T03:50:05;100451.22;;;4.92;71.33
58769;BME280;44536;47.474;19.056;2023-04-03T03:53:07;100447.91;;;4.88;70.71
58769;BME280;44536;47.474;19.056;2023-04-03T03:56:10;100453.84;;;4.92;71.15
58769;BME280;44536;47.474;19.056;2023-04-03T03:59:13;100449.59;;;4.89;70.73
58769;BME280;44536;47.474;19.056;2023-04-03T04:02:16;100459.34;;;4.87;70.96
58769;BME280;44536;47.474;19.056;2023-04-03T04:05:19;100455.47;;;4.94;71.41
58769;BME280;44536;47.474;19.056;2023-04-03T04:08:23;100449.50;;;4.91;71.71
58769;BME280;44536;47.474;19.056;2023-04-03T04:11:27;100445.41;;;4.85;71.44
58769;BME280;44536;47.474;19.056;2023-04-03T04:14:32;100448.28;;;4.81;71.87
58769;BME280;44536;47.474;19.056;2023-04-03T04:17:35;100445.66;;;4.81;70.99
58769;BME280;44536;47.474;19.056;2023-04-03T04:20:39;100442.25;;;4.79;72.07
58769;BME280;44536;47.474;19.056;2023-04-03T04:23:42;100452.69;;;4.80;71.66
58769;BME280;44536;47.474;19.056;2023-04-03T04:26:45;100460.56;;;5.15;70.99
58769;BME280;44536;47.474;19.056;2023-04-03T04:29:48;100457.94;;;4.97;70.45
58769;BME280;44536;47.474;19.056;2023-04-03T04:32:51;100465.66;;;4.83;71.17
58769;BME280;44536;47.474;19.056;2023-04-03T04:35:54;100461.72;;;4.75;72.20
58769;BME280;44536;47.474;19.056;2023-04-03T04:38:57;100470.53;;;4.74;72.00
58769;BME280;44536;47.474;19.056;2023-04-03T04:42:01;100479.34;;;4.73;71.00
58769;BME280;44536;47.474;19.056;2023-04-03T04:45:04;100477.03;;;4.67;71.56
58769;BME280;44536;47.474;19.056;2023-04-03T04:48:08;100475.28;;;4.67;70.97
58769;BME280;44536;47.474;19.056;2023-04-03T04:51:11;100482.53;;;4.62;71.75
58769;BME280;44536;47.474;19.056;2023-04-03T04:54:13;100476.34;;;4.63;71.89
58769;BME280;44536;47.474;19.056;2023-04-03T04:57:16;100476.03;;;4.52;71.80
58769;BME280;44536;47.474;19.056;2023-04-03T05:00:20;100480.72;;;4.45;71.97
58769;BME280;44536;47.474;19.056;2023-04-03T05:03:23;100482.34;;;4.48;72.93
58769;BME280;44536;47.474;19.056;2023-04-03T05:06:26;100485.13;;;4.45;72.66
58769;BME280;44536;47.474;19.056;2023-04-03T05:09:28;100479.41;;;4.54;72.38
58769;BME280;44536;47.474;19.056;2023-04-03T05:12:31;100482.34;;;4.48;72.18
58769;BME280;44536;47.474;19.056;2023-04-03T05:15:34;100490.84;;;4.53;72.72
58769;BME280;44536;47.474;19.056;2023-04-03T05:18:38;100488.78;;;4.59;72.91
58769;BME280;44536;47.474;19.056;2023-04-03T05:21:41;100486.78;;;4.64;72.30
58769;BME280;44536;47.474;19.056;2023-04-03T05:24:45;100486.44;;;4.71;72.34
58769;BME280;44536;47.474;19.056;2023-04-03T05:27:47;100487.53;;;4.84;72.06
58769;BME280;44536;47.474;19.056;2023-04-03T05:30:54;100481.75;;;5.12;70.66
58769;BME280;44536;47.474;19.056;2023-04-03T05:33:58;100486.62;;;5.68;68.69
58769;BME280;44536;47.474;19.056;2023-04-03T05:37:02;100480.59;;;5.82;67.04
58769;BME280;44536;47.474;19.056;2023-04-03T05:40:07;100487.87;;;5.61;67.79
58769;BME280;44536;47.474;19.056;2023-04-03T05:43:12;100478.53;;;5.22;69.57
58769;BME280;44536;47.474;19.056;2023-04-03T05:46:18;100478.34;;;5.10;69.78
58769;BME280;44536;47.474;19.056;2023-04-03T05:49:24;100485.91;;;5.16;70.57
58769;BME280;44536;47.474;19.056;2023-04-03T05:52:30;100490.63;;;5.09;70.73
58769;BME280;44536;47.474;19.056;2023-04-03T05:55:35;100490.72;;;5.08;70.21
58769;BME280;44536;47.474;19.056;2023-04-03T05:58:41;100494.19;;;5.08;69.89
58769;BME280;44536;47.474;19.056;2023-04-03T06:01:44;100494.97;;;5.10;69.44
58769;BME280;44536;47.474;19.056;2023-04-03T06:04:47;100507.38;;;5.24;69.47
58769;BME280;44536;47.474;19.056;2023-04-03T06:07:50;100510.44;;;6.29;65.29
58769;BME280;44536;47.474;19.056;2023-04-03T06:10:53;100512.69;;;6.67;64.22
58769;BME280;44536;47.474;19.056;2023-04-03T06:13:56;100517.28;;;6.93;62.27
58769;BME280;44536;47.474;19.056;2023-04-03T06:16:59;100510.00;;;8.53;57.77
58769;BME280;44536;47.474;19.056;2023-04-03T06:20:02;100504.66;;;13.74;43.83
58769;BME280;44536;47.474;19.056;2023-04-03T06:23:06;100508.16;;;17.40;35.24
58769;BME280;44536;47.474;19.056;2023-04-03T06:26:09;100517.47;;;16.75;34.59
58769;BME280;44536;47.474;19.056;2023-04-03T06:29:12;100506.38;;;13.13;42.02
58769;BME280;44536;47.474;19.056;2023-04-03T06:32:15;100525.34;;;12.12;44.52
58769;BME280;44536;47.474;19.056;2023-04-03T06:35:18;100520.94;;;11.33;44.25
58769;BME280;44536;47.474;19.056;2023-04-03T06:38:20;100514.56;;;10.66;46.73
58769;BME280;44536;47.474;19.056;2023-04-03T06:41:22;100520.78;;;9.91;49.07
58769;BME280;44536;47.474;19.056;2023-04-03T06:44:25;100526.59;;;10.09;48.44
58769;BME280;44536;47.474;19.056;2023-04-03T06:47:27;100522.97;;;9.74;48.96
58769;BME280;44536;47.474;19.056;2023-04-03T06:50:30;100528.31;;;9.09;50.52
58769;BME280;44536;47.474;19.056;2023-04-03T06:53:32;100535.44;;;9.21;52.03
58769;BME280;44536;47.474;19.056;2023-04-03T06:56:35;100537.75;;;9.13;50.79
58769;BME280;44536;47.474;19.056;2023-04-03T06:59:38;100537.44;;;9.17;51.39
58769;BME280;44536;47.474;19.056;2023-04-03T07:02:40;100541.72;;;8.80;52.81
58769;BME280;44536;47.474;19.056;2023-04-03T07:05:44;100548.66;;;9.08;52.37
58769;BME280;44536;47.474;19.056;2023-04-03T07:08:47;100550.69;;;9.17;52.41
58769;BME280;44536;47.474;19.056;2023-04-03T07:11:51;100557.88;;;9.15;51.64
58769;BME280;44536;47.474;19.056;2023-04-03T07:14:53;100555.87;;;9.19;52.55
58769;BME280;44536;47.474;19.056;2023-04-03T07:17:56;100556.97;;;9.02;54.20
58769;BME280;44536;47.474;19.056;2023-04-03T07:20:58;100548.81;;;9.32;50.27
58769;BME280;44536;47.474;19.056;2023-04-03T07:24:01;100556.97;;;9.02;51.95
58769;BME280;44536;47.474;19.056;2023-04-03T07:27:03;100561.22;;;9.05;50.47
58769;BME280;44536;47.474;19.056;2023-04-03T07:30:06;100566.06;;;8.98;52.07
58769;BME280;44536;47.474;19.056;2023-04-03T07:33:09;100560.41;;;9.17;51.29
58769;BME280;44536;47.474;19.056;2023-04-03T07:36:16;100560.69;;;9.00;50.16
58769;BME280;44536;47.474;19.056;2023-04-03T07:39:18;100572.41;;;9.35;51.24
58769;BME280;44536;47.474;19.056;2023-04-03T07:42:21;100575.47;;;9.29;50.08
58769;BME280;44536;47.474;19.056;2023-04-03T07:45:24;100570.59;;;9.48;49.70
58769;BME280;44536;47.474;19.056;2023-04-03T07:48:26;100574.22;;;9.35;49.98
58769;BME280;44536;47.474;19.056;2023-04-03T07:51:29;100576.75;;;8.96;50.91
58769;BME280;44536;47.474;19.056;2023-04-03T07:54:32;100569.97;;;9.32;50.38
58769;BME280;44536;47.474;19.056;2023-04-03T07:57:34;100577.47;;;9.38;49.47
58769;BME280;44536;47.474;19.056;2023-04-03T08:00:38;100572.84;;;9.67;49.01
58769;BME280;44536;47.474;19.056;2023-04-03T08:03:40;100583.41;;;9.42;49.84
58769;BME280;44536;47.474;19.056;2023-04-03T08:06:43;100589.75;;;9.26;50.59
58769;BME280;44536;47.474;19.056;2023-04-03T08:09:48;100589.25;;;9.59;49.19
58769;BME280;44536;47.474;19.056;2023-04-03T08:12:51;100585.22;;;9.54;49.76
58769;BME280;44536;47.474;19.056;2023-04-03T08:15:53;100584.56;;;9.38;50.03
58769;BME280;44536;47.474;19.056;2023-04-03T08:18:56;100582.38;;;9.57;49.85
58769;BME280;44536;47.474;19.056;2023-04-03T08:21:58;100591.16;;;9.57;50.09
58769;BME280;44536;47.474;19.056;2023-04-03T08:25:02;100579.22;;;9.77;49.17
58769;BME280;44536;47.474;19.056;2023-04-03T08:28:04;100585.47;;;9.76;49.68
58769;BME280;44536;47.474;19.056;2023-04-03T08:31:10;100591.50;;;9.78;48.15
58769;BME280;44536;47.474;19.056;2023-04-03T08:34:14;100591.19;;;9.83;47.26
58769;BME280;44536;47.474;19.056;2023-04-03T08:37:16;100587.97;;;9.90;47.43
58769;BME280;44536;47.474;19.056;2023-04-03T08:40:19;100591.25;;;9.94;47.21
58769;BME280;44536;47.474;19.056;2023-04-03T08:46:42;100584.69;;;10.25;47.11
58769;BME280;44536;47.474;19.056;2023-04-03T08:49:49;100583.97;;;10.83;45.24
58769;BME280;44536;47.474;19.056;2023-04-03T08:52:57;100590.38;;;10.92;45.50
58769;BME280;44536;47.474;19.056;2023-04-03T08:56:07;100589.13;;;11.33;44.45
58769;BME280;44536;47.474;19.056;2023-04-03T08:59:14;100590.09;;;11.78;42.84
58769;BME280;44536;47.474;19.056;2023-04-03T09:02:25;100589.50;;;12.08;43.26
58769;BME280;44536;47.474;19.056;2023-04-03T09:12:24;100591.66;;;12.90;40.98
58769;BME280;44536;47.474;19.056;2023-04-03T09:15:28;100593.25;;;12.39;40.37
58769;BME280;44536;47.474;19.056;2023-04-03T09:18:45;100596.97;;;12.47;39.68
58769;BME280;44536;47.474;19.056;2023-04-03T09:21:51;100600.72;;;12.45;39.12
58769;BME280;44536;47.474;19.056;2023-04-03T09:25:02;100602.91;;;12.17;40.06
58769;BME280;44536;47.474;19.056;2023-04-03T09:28:04;100605.69;;;11.58;42.46
58769;BME280;44536;47.474;19.056;2023-04-03T09:31:27;100595.28;;;12.24;40.96
58769;BME280;44536;47.474;19.056;2023-04-03T09:34:35;100603.56;;;12.64;40.62
58769;BME280;44536;47.474;19.056;2023-04-03T09:37:43;100608.69;;;12.99;38.86
58769;BME280;44536;47.474;19.056;2023-04-03T09:44:27;100603.06;;;13.24;37.16
58769;BME280;44536;47.474;19.056;2023-04-03T09:47:31;100598.56;;;12.93;38.86
58769;BME280;44536;47.474;19.056;2023-04-03T09:50:36;100600.34;;;13.36;38.01
58769;BME280;44536;47.474;19.056;2023-04-03T09:53:44;100585.94;;;13.38;39.57
58769;BME280;44536;47.474;19.056;2023-04-03T09:56:51;100590.28;;;14.21;36.03
58769;BME280;44536;47.474;19.056;2023-04-03T10:00:00;100576.44;;;14.27;36.54
58769;BME280;44536;47.474;19.056;2023-04-03T10:03:24;100570.94;;;13.88;37.00
58769;BME280;44536;47.474;19.056;2023-04-03T10:06:31;100580.09;;;13.96;36.18
58769;BME280;44536;47.474;19.056;2023-04-03T10:09:33;100581.09;;;14.04;37.07
58769;BME280;44536;47.474;19.056;2023-04-03T10:12:38;100582.50;;;14.39;35.17
58769;BME280;44536;47.474;19.056;2023-04-03T10:15:45;100581.66;;;14.38;35.37
58769;BME280;44536;47.474;19.056;2023-04-03T10:29:16;100586.06;;;10.91;43.29
58769;BME280;44536;47.474;19.056;2023-04-03T10:42:41;100588.38;;;10.35;46.04
58769;BME280;44536;47.474;19.056;2023-04-03T10:55:37;100572.28;;;10.86;44.60
58769;BME280;44536;47.474;19.056;2023-04-03T10:58:54;100571.66;;;10.82;43.43
58769;BME280;44536;47.474;19.056;2023-04-03T11:02:10;100582.87;;;11.10;42.62
58769;BME280;44536;47.474;19.056;2023-04-03T11:05:25;100576.75;;;11.20;44.14
58769;BME280;44536;47.474;19.056;2023-04-03T11:08:51;100575.44;;;11.26;42.91
58769;BME280;44536;47.474;19.056;2023-04-03T11:12:20;100578.44;;;11.21;42.87
58769;BME280;44536;47.474;19.056;2023-04-03T11:15:29;100569.03;;;10.93;42.43
58769;BME280;44536;47.474;19.056;2023-04-03T11:18:51;100582.38;;;10.57;43.26
58769;BME280;44536;47.474;19.056;2023-04-03T11:21:57;100578.09;;;10.67;43.11
58769;BME280;44536;47.474;19.056;2023-04-03T11:28:13;100563.38;;;10.87;43.20
58769;BME280;44536;47.474;19.056;2023-04-03T11:34:53;100557.84;;;11.25;40.69
58769;BME280;44536;47.474;19.056;2023-04-03T11:38:23;100550.25;;;11.32;43.64
58769;BME280;44536;47.474;19.056;2023-04-03T11:41:30;100545.19;;;11.28;41.68
58769;BME280;44536;47.474;19.056;2023-04-03T11:44:37;100549.69;;;11.39;40.67
58769;BME280;44536;47.474;19.056;2023-04-03T11:50:51;100546.53;;;11.56;40.20
58769;BME280;44536;47.474;19.056;2023-04-03T11:53:54;100548.13;;;11.13;42.37
58769;BME280;44536;47.474;19.056;2023-04-03T11:56:57;100558.94;;;11.45;39.27
58769;BME280;44536;47.474;19.056;2023-04-03T11:59:59;100545.31;;;11.38;39.34
58769;BME280;44536;47.474;19.056;2023-04-03T12:03:02;100552.19;;;11.30;39.35
58769;BME280;44536;47.474;19.056;2023-04-03T12:09:54;100544.56;;;11.25;39.40
58769;BME280;44536;47.474;19.056;2023-04-03T12:13:00;100539.91;;;11.05;40.07
58769;BME280;44536;47.474;19.056;2023-04-03T12:16:32;100537.47;;;11.02;40.03
58769;BME280;44536;47.474;19.056;2023-04-03T12:19:38;100530.62;;;10.51;41.07
58769;BME280;44536;47.474;19.056;2023-04-03T12:23:22;100529.91;;;10.73;42.32
58769;BME280;44536;47.474;19.056;2023-04-03T12:26:46;100527.31;;;10.37;41.55
58769;BME280;44536;47.474;19.056;2023-04-03T12:40:43;100527.59;;;11.39;40.62
58769;BME280;44536;47.474;19.056;2023-04-03T12:47:01;100525.03;;;11.48;40.56
58769;BME280;44536;47.474;19.056;2023-04-03T12:50:36;100523.12;;;11.39;40.86
58769;BME280;44536;47.474;19.056;2023-04-03T12:53:38;100525.37;;;11.79;39.34
58769;BME280;44536;47.474;19.056;2023-04-03T12:56:46;100520.75;;;12.03;38.96
58769;BME280;44536;47.474;19.056;2023-04-03T12:59:54;100520.16;;;12.97;36.63
58769;BME280;44536;47.474;19.056;2023-04-03T13:02:56;100513.88;;;13.40;35.97
58769;BME280;44536;47.474;19.056;2023-04-03T13:06:02;100505.81;;;13.30;35.76
58769;BME280;44536;47.474;19.056;2023-04-03T13:09:24;100509.91;;;13.34;36.61
58769;BME280;44536;47.474;19.056;2023-04-03T13:12:28;100495.13;;;13.09;36.62
58769;BME280;44536;47.474;19.056;2023-04-03T13:15:47;100501.97;;;12.70;37.08
58769;BME280;44536;47.474;19.056;2023-04-03T13:18:53;100491.47;;;12.37;38.72
58769;BME280;44536;47.474;19.056;2023-04-03T13:22:02;100498.13;;;12.20;38.18
58769;BME280;44536;47.474;19.056;2023-04-03T13:25:09;100491.31;;;11.84;38.87
58769;BME280;44536;47.474;19.056;2023-04-03T13:28:20;100490.72;;;11.80;38.86
58769;BME280;44536;47.474;19.056;2023-04-03T13:31:27;100492.03;;;11.86;39.44
58769;BME280;44536;47.474;19.056;2023-04-03T13:34:42;100490.78;;;12.01;39.51
58769;BME280;44536;47.474;19.056;2023-04-03T13:37:56;100488.34;;;12.32;37.06
58769;BME280;44536;47.474;19.056;2023-04-03T13:41:20;100485.91;;;12.29;38.26
58769;BME280;44536;47.474;19.056;2023-04-03T13:44:32;100486.97;;;11.94;38.20
58769;BME280;44536;47.474;19.056;2023-04-03T13:47:39;100488.31;;;12.43;38.77
58769;BME280;44536;47.474;19.056;2023-04-03T13:53:59;100479.75;;;12.60;37.32
58769;BME280;44536;47.474;19.056;2023-04-03T13:57:02;100469.03;;;12.50;38.11
58769;BME280;44536;47.474;19.056;2023-04-03T14:00:28;100467.19;;;12.62;36.98
58769;BME280;44536;47.474;19.056;2023-04-03T14:03:44;100462.81;;;12.40;38.13
58769;BME280;44536;47.474;19.056;2023-04-03T14:06:47;100457.87;;;12.36;37.14
58769;BME280;44536;47.474;19.056;2023-04-03T14:09:50;100465.03;;;12.56;37.03
58769;BME280;44536;47.474;19.056;2023-04-03T14:12:53;100462.38;;;12.56;37.48
58769;BME280;44536;47.474;19.056;2023-04-03T14:15:55;100458.84;;;12.35;37.83
58769;BME280;44536;47.474;19.056;2023-04-03T14:19:07;100457.94;;;12.02;39.48
58769;BME280;44536;47.474;19.056;2023-04-03T14:22:23;100454.13;;;12.27;39.02
58769;BME280;44536;47.474;19.056;2023-04-03T14:25:26;100452.69;;;12.23;37.62
58769;BME280;44536;47.474;19.056;2023-04-03T14:28:28;100451.34;;;12.29;37.10
58769;BME280;44536;47.474;19.056;2023-04-03T14:31:31;100457.91;;;12.13;39.23
58769;BME280;44536;47.474;19.056;2023-04-03T14:34:34;100459.41;;;11.95;38.08
58769;BME280;44536;47.474;19.056;2023-04-03T14:37:36;100453.97;;;11.63;38.66
58769;BME280;44536;47.474;19.056;2023-04-03T14:40:39;100456.84;;;11.60;38.37
58769;BME280;44536;47.474;19.056;2023-04-03T14:43:42;100457.81;;;11.59;39.30
58769;BME280;44536;47.474;19.056;2023-04-03T14:46:45;100455.41;;;11.45;39.87
58769;BME280;44536;47.474;19.056;2023-04-03T14:50:00;100456.72;;;11.28;41.74
58769;BME280;44536;47.474;19.056;2023-04-03T14:53:03;100464.56;;;11.18;39.58
58769;BME280;44536;47.474;19.056;2023-04-03T14:56:17;100461.06;;;11.29;39.66
58769;BME280;44536;47.474;19.056;2023-04-03T14:59:20;100462.91;;;10.93;39.50
58769;BME280;44536;47.474;19.056;2023-04-03T15:02:32;100473.38;;;10.73;39.93
58769;BME280;44536;47.474;19.056;2023-04-03T15:05:36;100465.13;;;10.65;40.74
58769;BME280;44536;47.474;19.056;2023-04-03T15:08:39;100456.59;;;10.37;41.80
58769;BME280;44536;47.474;19.056;2023-04-03T15:11:44;100457.56;;;10.47;41.73
58769;BME280;44536;47.474;19.056;2023-04-03T15:27:35;100467.19;;;10.37;42.59
58769;BME280;44536;47.474;19.056;2023-04-03T15:30:39;100458.59;;;9.97;42.12
58769;BME280;44536;47.474;19.056;2023-04-03T15:33:42;100458.97;;;9.80;42.44
58769;BME280;44536;47.474;19.056;2023-04-03T15:36:45;100456.91;;;9.47;42.16
58769;BME280;44536;47.474;19.056;2023-04-03T15:39:47;100464.22;;;9.31;43.32
58769;BME280;44536;47.474;19.056;2023-04-03T15:42:50;100462.00;;;9.24;43.64
58769;BME280;44536;47.474;19.056;2023-04-03T15:45:57;100458.94;;;9.18;42.71
58769;BME280;44536;47.474;19.056;2023-04-03T15:49:01;100461.34;;;8.95;44.02
58769;BME280;44536;47.474;19.056;2023-04-03T15:52:03;100465.38;;;9.01;43.86
58769;BME280;44536;47.474;19.056;2023-04-03T15:55:06;100466.63;;;8.83;44.05
58769;BME280;44536;47.474;19.056;2023-04-03T15:58:08;100464.09;;;8.81;44.87
58769;BME280;44536;47.474;19.056;2023-04-03T16:01:11;100472.72;;;8.71;43.37
58769;BME280;44536;47.474;19.056;2023-04-03T16:04:14;100472.28;;;8.64;44.10
58769;BME280;44536;47.474;19.056;2023-04-03T16:07:18;100480.50;;;8.59;44.44
58769;BME280;44536;47.474;19.056;2023-04-03T16:10:21;100468.56;;;8.54;44.21
58769;BME280;44536;47.474;19.056;2023-04-03T16:13:24;100468.03;;;8.61;44.66
58769;BME280;44536;47.474;19.056;2023-04-03T16:16:27;100473.53;;;8.58;44.56
58769;BME280;44536;47.474;19.056;2023-04-03T16:19:29;100470.34;;;8.53;44.15
58769;BME280;44536;47.474;19.056;2023-04-03T16:22:32;100475.09;;;8.48;43.96
58769;BME280;44536;47.474;19.056;2023-04-03T16:25:35;100477.13;;;8.30;43.88
58769;BME280;44536;47.474;19.056;2023-04-03T16:28:38;100471.56;;;8.21;44.61
58769;BME280;44536;47.474;19.056;2023-04-03T16:31:40;100482.03;;;8.22;44.75
58769;BME280;44536;47.474;19.056;2023-04-03T16:34:42;100483.28;;;8.17;44.07
58769;BME280;44536;47.474;19.056;2023-04-03T16:37:46;100484.44;;;8.13;44.59
58769;BME280;44536;47.474;19.056;2023-04-03T16:40:49;100488.47;;;8.18;44.35
58769;BME280;44536;47.474;19.056;2023-04-03T16:43:51;100499.41;;;8.12;45.50
58769;BME280;44536;47.474;19.056;2023-04-03T16:46:54;100494.87;;;8.28;43.82
58769;BME280;44536;47.474;19.056;2023-04-03T16:49:56;100509.66;;;8.31;44.12
58769;BME280;44536;47.474;19.056;2023-04-03T16:52:59;100508.28;;;8.25;44.60
58769;BME280;44536;47.474;19.056;2023-04-03T16:56:02;100519.59;;;8.13;43.81
58769;BME280;44536;47.474;19.056;2023-04-03T16:59:04;100525.44;;;8.18;43.59
58769;BME280;44536;47.474;19.056;2023-04-03T17:02:07;100525.09;;;7.96;43.12
58769;BME280;44536;47.474;19.056;2023-04-03T17:05:10;100536.78;;;7.92;43.19
58769;BME280;44536;47.474;19.056;2023-04-03T17:08:12;100559.63;;;7.79;44.35
58769;BME280;44536;47.474;19.056;2023-04-03T17:11:17;100574.41;;;7.81;42.58
58769;BME280;44536;47.474;19.056;2023-04-03T17:14:25;100573.00;;;7.61;43.89
58769;BME280;44536;47.474;19.056;2023-04-03T17:17:27;100581.09;;;7.58;44.77
58769;BME280;44536;47.474;19.056;2023-04-03T17:20:30;100594.66;;;7.52;42.95
58769;BME280;44536;47.474;19.056;2023-04-03T17:23:33;100591.41;;;7.33;43.63
58769;BME280;44536;47.474;19.056;2023-04-03T17:26:36;100602.69;;;7.21;43.74
58769;BME280;44536;47.474;19.056;2023-04-03T17:29:40;100610.28;;;7.11;43.39
58769;BME280;44536;47.474;19.056;2023-04-03T17:32:42;100621.88;;;7.09;44.09
58769;BME280;44536;47.474;19.056;2023-04-03T17:35:45;100619.81;;;7.14;43.55